sensor_id;sensor_type;location;lat;lon;timestamp;pressure;altitude;pressure_sealevel;temperature;humidity
63306;BME280;50735;52.060;1.248;2022-11-27T00:02:18;101479.20;;;7.52;68.12
63306;BME280;50735;52.060;1.248;2022-11-27T00:04:44;101484.23;;;7.54;68.24
63306;BME280;50735;52.060;1.248;2022-11-27T00:07:11;101472.51;;;7.36;68.14
63306;BME280;50735;52.060;1.248;2022-11-27T00:09:38;101465.73;;;7.39;68.02
63306;BME280;50735;52.060;1.248;2022-11-27T00:12:05;101458.88;;;7.34;68.11
63306;BME280;50735;52.060;1.248;2022-11-27T00:14:32;101458.97;;;7.20;68.33
63306;BME280;50735;52.060;1.248;2022-11-27T00:16:58;101445.68;;;7.35;67.61
63306;BME280;50735;52.060;1.248;2022-11-27T00:19:26;101445.13;;;7.46;66.93
63306;BME280;50735;52.060;1.248;2022-11-27T00:21:52;101447.22;;;7.31;67.19
63306;BME280;50735;52.060;1.248;2022-11-27T00:24:19;101448.62;;;7.45;67.35
63306;BME280;50735;52.060;1.248;2022-11-27T00:26:46;101448.40;;;7.29;67.26
63306;BME280;50735;52.060;1.248;2022-11-27T00:29:13;101448.09;;;7.43;66.76
63306;BME280;50735;52.060;1.248;2022-11-27T00:31:40;101452.36;;;7.24;67.10
63306;BME280;50735;52.060;1.248;2022-11-27T00:34:07;101456.53;;;7.15;67.48
63306;BME280;50735;52.060;1.248;2022-11-27T00:36:36;101452.06;;;7.42;67.35
63306;BME280;50735;52.060;1.248;2022-11-27T00:39:03;101440.63;;;7.34;67.09
63306;BME280;50735;52.060;1.248;2022-11-27T00:41:31;101444.12;;;7.54;67.13
63306;BME280;50735;52.060;1.248;2022-11-27T00:43:59;101445.62;;;7.44;67.90
63306;BME280;50735;52.060;1.248;2022-11-27T00:46:28;101440.75;;;7.40;67.56
63306;BME280;50735;52.060;1.248;2022-11-27T00:48:55;101440.72;;;7.18;67.64
63306;BME280;50735;52.060;1.248;2022-11-27T00:51:22;101445.91;;;7.22;67.38
63306;BME280;50735;52.060;1.248;2022-11-27T00:53:49;101444.60;;;7.33;67.26
63306;BME280;50735;52.060;1.248;2022-11-27T00:56:18;101439.94;;;7.37;67.52
63306;BME280;50735;52.060;1.248;2022-11-27T00:58:46;101443.67;;;7.20;67.78
63306;BME280;50735;52.060;1.248;2022-11-27T01:01:16;101445.29;;;6.90;68.28
63306;BME280;50735;52.060;1.248;2022-11-27T01:03:44;101449.87;;;7.06;68.12
63306;BME280;50735;52.060;1.248;2022-11-27T01:06:11;101429.82;;;7.20;68.29
63306;BME280;50735;52.060;1.248;2022-11-27T01:08:39;101423.65;;;7.20;67.87
63306;BME280;50735;52.060;1.248;2022-11-27T01:11:06;101423.26;;;7.25;68.01
63306;BME280;50735;52.060;1.248;2022-11-27T01:13:35;101423.54;;;6.72;68.99
63306;BME280;50735;52.060;1.248;2022-11-27T01:16:04;101427.40;;;6.70;69.22
63306;BME280;50735;52.060;1.248;2022-11-27T01:18:32;101419.00;;;7.44;68.62
63306;BME280;50735;52.060;1.248;2022-11-27T01:20:59;101416.77;;;7.09;69.18
63306;BME280;50735;52.060;1.248;2022-11-27T01:23:26;101419.08;;;7.01;69.33
63306;BME280;50735;52.060;1.248;2022-11-27T01:25:53;101414.61;;;7.12;68.84
63306;BME280;50735;52.060;1.248;2022-11-27T01:28:22;101404.71;;;7.01;68.95
63306;BME280;50735;52.060;1.248;2022-11-27T01:30:50;101405.18;;;6.99;69.67
63306;BME280;50735;52.060;1.248;2022-11-27T01:33:17;101404.85;;;7.09;69.11
63306;BME280;50735;52.060;1.248;2022-11-27T01:35:53;101410.29;;;6.94;69.33
63306;BME280;50735;52.060;1.248;2022-11-27T01:38:21;101401.53;;;7.14;69.12
63306;BME280;50735;52.060;1.248;2022-11-27T01:40:55;101405.02;;;7.10;68.96
63306;BME280;50735;52.060;1.248;2022-11-27T01:43:35;101402.60;;;7.13;68.97
63306;BME280;50735;52.060;1.248;2022-11-27T01:46:02;101400.79;;;6.90;69.61
63306;BME280;50735;52.060;1.248;2022-11-27T01:48:30;101395.99;;;7.03;70.11
63306;BME280;50735;52.060;1.248;2022-11-27T01:50:57;101398.90;;;6.76;69.89
63306;BME280;50735;52.060;1.248;2022-11-27T01:53:24;101393.00;;;6.90;69.90
63306;BME280;50735;52.060;1.248;2022-11-27T01:55:55;101394.86;;;6.89;69.66
63306;BME280;50735;52.060;1.248;2022-11-27T01:58:26;101400.48;;;7.18;69.10
63306;BME280;50735;52.060;1.248;2022-11-27T02:00:54;101403.71;;;6.71;70.20
63306;BME280;50735;52.060;1.248;2022-11-27T02:03:21;101391.12;;;6.69;70.50
63306;BME280;50735;52.060;1.248;2022-11-27T02:05:48;101389.34;;;6.99;69.90
63306;BME280;50735;52.060;1.248;2022-11-27T02:08:16;101391.92;;;7.21;69.64
63306;BME280;50735;52.060;1.248;2022-11-27T02:10:48;101381.05;;;7.00;69.93
63306;BME280;50735;52.060;1.248;2022-11-27T02:13:21;101387.68;;;7.05;70.17
63306;BME280;50735;52.060;1.248;2022-11-27T02:15:59;101385.21;;;7.12;71.07
63306;BME280;50735;52.060;1.248;2022-11-27T02:18:33;101380.44;;;6.74;71.48
63306;BME280;50735;52.060;1.248;2022-11-27T02:21:08;101378.09;;;6.57;71.00
63306;BME280;50735;52.060;1.248;2022-11-27T02:23:55;101374.00;;;6.40;71.48
63306;BME280;50735;52.060;1.248;2022-11-27T02:26:37;101374.77;;;6.65;71.40
63306;BME280;50735;52.060;1.248;2022-11-27T02:29:07;101369.43;;;6.66;71.29
63306;BME280;50735;52.060;1.248;2022-11-27T02:31:39;101367.45;;;7.16;70.76
63306;BME280;50735;52.060;1.248;2022-11-27T02:34:13;101363.04;;;6.86;71.47
63306;BME280;50735;52.060;1.248;2022-11-27T02:36:47;101370.01;;;6.83;71.04
63306;BME280;50735;52.060;1.248;2022-11-27T02:39:20;101361.72;;;6.51;71.35
63306;BME280;50735;52.060;1.248;2022-11-27T02:41:53;101362.66;;;7.02;70.35
63306;BME280;50735;52.060;1.248;2022-11-27T02:44:23;101365.18;;;6.71;70.77
63306;BME280;50735;52.060;1.248;2022-11-27T02:46:53;101364.41;;;6.61;70.71
63306;BME280;50735;52.060;1.248;2022-11-27T02:49:21;101369.96;;;6.94;70.31
63306;BME280;50735;52.060;1.248;2022-11-27T02:51:52;101355.17;;;6.71;70.48
63306;BME280;50735;52.060;1.248;2022-11-27T02:54:26;101357.49;;;6.69;69.79
63306;BME280;50735;52.060;1.248;2022-11-27T02:56:55;101356.15;;;6.66;69.77
63306;BME280;50735;52.060;1.248;2022-11-27T02:59:25;101349.85;;;6.44;70.29
63306;BME280;50735;52.060;1.248;2022-11-27T03:01:56;101352.04;;;6.55;70.32
63306;BME280;50735;52.060;1.248;2022-11-27T03:04:27;101349.20;;;6.44;70.49
63306;BME280;50735;52.060;1.248;2022-11-27T03:06:58;101346.44;;;6.52;69.42
63306;BME280;50735;52.060;1.248;2022-11-27T03:09:31;101340.99;;;6.58;70.31
63306;BME280;50735;52.060;1.248;2022-11-27T03:12:01;101332.34;;;6.08;71.34
63306;BME280;50735;52.060;1.248;2022-11-27T03:14:28;101335.29;;;6.63;70.30
63306;BME280;50735;52.060;1.248;2022-11-27T03:17:01;101339.34;;;6.50;70.57
63306;BME280;50735;52.060;1.248;2022-11-27T03:19:37;101328.30;;;6.76;69.85
63306;BME280;50735;52.060;1.248;2022-11-27T03:22:05;101330.50;;;6.16;71.86
63306;BME280;50735;52.060;1.248;2022-11-27T03:24:34;101329.08;;;6.38;71.54
63306;BME280;50735;52.060;1.248;2022-11-27T03:27:02;101333.56;;;6.39;71.71
63306;BME280;50735;52.060;1.248;2022-11-27T03:29:33;101328.39;;;6.46;71.94
63306;BME280;50735;52.060;1.248;2022-11-27T03:32:00;101322.59;;;6.31;71.91
63306;BME280;50735;52.060;1.248;2022-11-27T03:34:28;101327.48;;;6.60;71.45
63306;BME280;50735;52.060;1.248;2022-11-27T03:36:55;101332.46;;;6.54;70.98
63306;BME280;50735;52.060;1.248;2022-11-27T03:39:22;101338.90;;;6.51;71.41
63306;BME280;50735;52.060;1.248;2022-11-27T03:41:53;101334.98;;;6.60;71.29
63306;BME280;50735;52.060;1.248;2022-11-27T03:44:28;101331.92;;;6.38;72.11
63306;BME280;50735;52.060;1.248;2022-11-27T03:47:05;101308.99;;;6.30;71.84
63306;BME280;50735;52.060;1.248;2022-11-27T03:49:43;101304.11;;;6.49;71.32
63306;BME280;50735;52.060;1.248;2022-11-27T03:52:21;101308.19;;;6.58;71.15
63306;BME280;50735;52.060;1.248;2022-11-27T03:54:53;101296.44;;;6.36;71.84
63306;BME280;50735;52.060;1.248;2022-11-27T03:57:28;101298.83;;;6.32;72.02
63306;BME280;50735;52.060;1.248;2022-11-27T03:59:58;101319.77;;;6.61;71.73
63306;BME280;50735;52.060;1.248;2022-11-27T04:02:29;101320.75;;;6.74;71.52
63306;BME280;50735;52.060;1.248;2022-11-27T04:05:03;101316.00;;;6.67;71.96
63306;BME280;50735;52.060;1.248;2022-11-27T04:07:30;101313.92;;;6.90;71.26
63306;BME280;50735;52.060;1.248;2022-11-27T04:09:57;101309.90;;;6.68;71.50
63306;BME280;50735;52.060;1.248;2022-11-27T04:12:24;101311.74;;;6.82;71.66
63306;BME280;50735;52.060;1.248;2022-11-27T04:14:50;101310.61;;;6.59;72.36
63306;BME280;50735;52.060;1.248;2022-11-27T04:17:17;101298.86;;;6.39;71.83
63306;BME280;50735;52.060;1.248;2022-11-27T04:19:44;101288.64;;;6.54;72.70
63306;BME280;50735;52.060;1.248;2022-11-27T04:22:11;101280.46;;;6.79;71.54
63306;BME280;50735;52.060;1.248;2022-11-27T04:24:37;101282.49;;;6.89;71.59
63306;BME280;50735;52.060;1.248;2022-11-27T04:27:04;101273.89;;;6.54;72.11
63306;BME280;50735;52.060;1.248;2022-11-27T04:29:31;101281.64;;;6.52;72.87
63306;BME280;50735;52.060;1.248;2022-11-27T04:31:57;101279.67;;;6.60;72.69
63306;BME280;50735;52.060;1.248;2022-11-27T04:34:24;101271.96;;;6.52;72.40
63306;BME280;50735;52.060;1.248;2022-11-27T04:36:50;101284.97;;;6.85;72.07
63306;BME280;50735;52.060;1.248;2022-11-27T04:39:17;101276.49;;;6.67;71.51
63306;BME280;50735;52.060;1.248;2022-11-27T04:41:44;101280.90;;;6.80;72.03
63306;BME280;50735;52.060;1.248;2022-11-27T04:44:11;101282.15;;;6.60;72.87
63306;BME280;50735;52.060;1.248;2022-11-27T04:46:38;101273.05;;;6.82;72.51
63306;BME280;50735;52.060;1.248;2022-11-27T04:49:05;101259.10;;;6.79;72.58
63306;BME280;50735;52.060;1.248;2022-11-27T04:51:32;101258.22;;;6.60;73.06
63306;BME280;50735;52.060;1.248;2022-11-27T04:53:59;101265.40;;;6.90;72.25
63306;BME280;50735;52.060;1.248;2022-11-27T04:56:26;101268.90;;;6.84;72.41
63306;BME280;50735;52.060;1.248;2022-11-27T04:58:52;101262.86;;;6.84;72.66
63306;BME280;50735;52.060;1.248;2022-11-27T05:01:19;101262.58;;;6.59;72.81
63306;BME280;50735;52.060;1.248;2022-11-27T05:03:47;101263.26;;;6.65;72.83
63306;BME280;50735;52.060;1.248;2022-11-27T05:06:14;101270.75;;;6.68;72.75
63306;BME280;50735;52.060;1.248;2022-11-27T05:08:41;101258.78;;;6.59;72.19
63306;BME280;50735;52.060;1.248;2022-11-27T05:11:11;101252.86;;;6.94;72.02
63306;BME280;50735;52.060;1.248;2022-11-27T05:13:39;101256.80;;;6.98;72.27
63306;BME280;50735;52.060;1.248;2022-11-27T05:16:07;101252.92;;;6.67;72.26
63306;BME280;50735;52.060;1.248;2022-11-27T05:18:34;101243.31;;;7.16;71.93
63306;BME280;50735;52.060;1.248;2022-11-27T05:21:05;101243.80;;;7.02;71.71
63306;BME280;50735;52.060;1.248;2022-11-27T05:23:33;101241.33;;;6.73;72.16
63306;BME280;50735;52.060;1.248;2022-11-27T05:26:00;101245.29;;;7.04;71.95
63306;BME280;50735;52.060;1.248;2022-11-27T05:28:27;101251.91;;;6.93;72.15
63306;BME280;50735;52.060;1.248;2022-11-27T05:30:54;101249.56;;;6.72;72.34
63306;BME280;50735;52.060;1.248;2022-11-27T05:33:22;101262.73;;;6.86;72.36
63306;BME280;50735;52.060;1.248;2022-11-27T05:35:48;101251.69;;;6.74;72.40
63306;BME280;50735;52.060;1.248;2022-11-27T05:38:15;101250.71;;;6.81;72.20
63306;BME280;50735;52.060;1.248;2022-11-27T05:40:41;101248.76;;;6.71;72.27
63306;BME280;50735;52.060;1.248;2022-11-27T05:43:09;101254.94;;;6.82;72.02
63306;BME280;50735;52.060;1.248;2022-11-27T05:45:36;101243.39;;;6.92;72.53
63306;BME280;50735;52.060;1.248;2022-11-27T05:48:03;101248.09;;;6.65;72.63
63306;BME280;50735;52.060;1.248;2022-11-27T05:50:31;101243.75;;;6.88;72.83
63306;BME280;50735;52.060;1.248;2022-11-27T05:52:58;101244.00;;;6.97;72.07
63306;BME280;50735;52.060;1.248;2022-11-27T05:55:25;101261.73;;;7.11;71.49
63306;BME280;50735;52.060;1.248;2022-11-27T05:57:51;101262.60;;;7.19;71.80
63306;BME280;50735;52.060;1.248;2022-11-27T06:00:18;101254.26;;;7.01;72.60
63306;BME280;50735;52.060;1.248;2022-11-27T06:02:45;101253.85;;;7.24;72.41
63306;BME280;50735;52.060;1.248;2022-11-27T06:05:13;101257.22;;;6.82;73.14
63306;BME280;50735;52.060;1.248;2022-11-27T06:07:40;101248.01;;;7.30;72.16
63306;BME280;50735;52.060;1.248;2022-11-27T06:10:07;101244.12;;;7.01;72.19
63306;BME280;50735;52.060;1.248;2022-11-27T06:12:34;101228.65;;;7.17;71.68
63306;BME280;50735;52.060;1.248;2022-11-27T06:15:01;101235.61;;;7.64;71.41
63306;BME280;50735;52.060;1.248;2022-11-27T06:17:27;101230.92;;;7.40;71.57
63306;BME280;50735;52.060;1.248;2022-11-27T06:19:54;101239.11;;;7.02;72.10
63306;BME280;50735;52.060;1.248;2022-11-27T06:22:20;101235.26;;;7.24;71.52
63306;BME280;50735;52.060;1.248;2022-11-27T06:24:47;101231.30;;;7.31;71.32
63306;BME280;50735;52.060;1.248;2022-11-27T06:27:14;101230.17;;;7.56;70.54
63306;BME280;50735;52.060;1.248;2022-11-27T06:29:40;101226.35;;;7.54;70.72
63306;BME280;50735;52.060;1.248;2022-11-27T06:32:07;101233.40;;;7.59;70.65
63306;BME280;50735;52.060;1.248;2022-11-27T06:34:34;101231.52;;;7.74;70.85
63306;BME280;50735;52.060;1.248;2022-11-27T06:37:01;101236.92;;;7.47;71.09
63306;BME280;50735;52.060;1.248;2022-11-27T06:39:28;101241.30;;;7.09;72.20
63306;BME280;50735;52.060;1.248;2022-11-27T06:41:54;101237.96;;;7.39;71.52
63306;BME280;50735;52.060;1.248;2022-11-27T06:44:21;101238.38;;;7.45;71.24
63306;BME280;50735;52.060;1.248;2022-11-27T06:46:48;101247.77;;;7.49;71.18
63306;BME280;50735;52.060;1.248;2022-11-27T06:49:15;101257.74;;;7.62;70.78
63306;BME280;50735;52.060;1.248;2022-11-27T06:51:41;101263.37;;;7.68;70.73
63306;BME280;50735;52.060;1.248;2022-11-27T06:54:08;101264.41;;;7.72;70.61
63306;BME280;50735;52.060;1.248;2022-11-27T06:56:35;101273.01;;;7.67;70.74
63306;BME280;50735;52.060;1.248;2022-11-27T06:59:01;101275.37;;;7.38;71.24
63306;BME280;50735;52.060;1.248;2022-11-27T07:01:29;101281.11;;;7.49;71.28
63306;BME280;50735;52.060;1.248;2022-11-27T07:03:56;101278.33;;;7.62;71.03
63306;BME280;50735;52.060;1.248;2022-11-27T07:06:25;101278.84;;;7.72;70.68
63306;BME280;50735;52.060;1.248;2022-11-27T07:08:52;101290.03;;;7.91;70.19
63306;BME280;50735;52.060;1.248;2022-11-27T07:11:21;101289.98;;;8.08;69.79
63306;BME280;50735;52.060;1.248;2022-11-27T07:13:50;101291.12;;;8.06;69.78
63306;BME280;50735;52.060;1.248;2022-11-27T07:16:17;101285.86;;;7.80;70.55
63306;BME280;50735;52.060;1.248;2022-11-27T07:18:47;101284.17;;;7.84;70.53
63306;BME280;50735;52.060;1.248;2022-11-27T07:21:15;101279.01;;;7.83;70.79
63306;BME280;50735;52.060;1.248;2022-11-27T07:23:42;101267.74;;;7.90;70.62
63306;BME280;50735;52.060;1.248;2022-11-27T07:26:11;101266.57;;;7.95;70.59
63306;BME280;50735;52.060;1.248;2022-11-27T07:28:38;101267.62;;;8.09;70.06
63306;BME280;50735;52.060;1.248;2022-11-27T07:31:05;101265.13;;;8.06;70.19
63306;BME280;50735;52.060;1.248;2022-11-27T07:33:32;101265.79;;;8.26;69.08
63306;BME280;50735;52.060;1.248;2022-11-27T07:36:00;101262.23;;;8.18;69.91
63306;BME280;50735;52.060;1.248;2022-11-27T07:38:28;101262.65;;;8.23;69.46
63306;BME280;50735;52.060;1.248;2022-11-27T07:40:54;101257.99;;;8.54;69.04
63306;BME280;50735;52.060;1.248;2022-11-27T07:43:24;101260.64;;;8.73;68.57
63306;BME280;50735;52.060;1.248;2022-11-27T07:45:51;101251.36;;;8.59;68.63
63306;BME280;50735;52.060;1.248;2022-11-27T07:48:18;101243.50;;;8.65;69.12
63306;BME280;50735;52.060;1.248;2022-11-27T07:50:44;101241.95;;;8.26;69.66
63306;BME280;50735;52.060;1.248;2022-11-27T07:53:11;101241.32;;;8.04;70.08
63306;BME280;50735;52.060;1.248;2022-11-27T07:55:39;101239.50;;;8.19;69.68
63306;BME280;50735;52.060;1.248;2022-11-27T07:58:06;101239.12;;;8.22;69.89
63306;BME280;50735;52.060;1.248;2022-11-27T08:00:34;101241.18;;;8.40;69.45
63306;BME280;50735;52.060;1.248;2022-11-27T08:03:01;101241.87;;;8.54;69.31
63306;BME280;50735;52.060;1.248;2022-11-27T08:05:28;101240.85;;;8.54;69.57
63306;BME280;50735;52.060;1.248;2022-11-27T08:07:58;101234.98;;;8.61;69.43
63306;BME280;50735;52.060;1.248;2022-11-27T08:10:24;101237.01;;;8.19;70.01
63306;BME280;50735;52.060;1.248;2022-11-27T08:12:51;101236.08;;;8.43;70.16
63306;BME280;50735;52.060;1.248;2022-11-27T08:15:18;101233.80;;;7.86;70.50
63306;BME280;50735;52.060;1.248;2022-11-27T08:17:45;101227.21;;;8.37;70.11
63306;BME280;50735;52.060;1.248;2022-11-27T08:20:12;101230.07;;;8.36;69.58
63306;BME280;50735;52.060;1.248;2022-11-27T08:22:38;101228.16;;;8.34;69.76
63306;BME280;50735;52.060;1.248;2022-11-27T08:25:06;101227.62;;;8.57;69.36
63306;BME280;50735;52.060;1.248;2022-11-27T08:27:33;101229.63;;;8.45;69.50
63306;BME280;50735;52.060;1.248;2022-11-27T08:29:59;101226.65;;;8.20;69.62
63306;BME280;50735;52.060;1.248;2022-11-27T08:32:26;101218.46;;;8.20;69.67
63306;BME280;50735;52.060;1.248;2022-11-27T08:34:52;101211.69;;;8.21;69.88
63306;BME280;50735;52.060;1.248;2022-11-27T08:37:19;101217.59;;;8.60;69.66
63306;BME280;50735;52.060;1.248;2022-11-27T08:39:46;101228.33;;;8.46;69.63
63306;BME280;50735;52.060;1.248;2022-11-27T08:42:12;101230.33;;;8.61;69.30
63306;BME280;50735;52.060;1.248;2022-11-27T08:44:39;101222.23;;;8.87;70.44
63306;BME280;50735;52.060;1.248;2022-11-27T08:47:05;101212.68;;;8.94;68.06
63306;BME280;50735;52.060;1.248;2022-11-27T08:49:32;101207.68;;;8.80;68.96
63306;BME280;50735;52.060;1.248;2022-11-27T08:51:58;101205.93;;;8.78;68.96
63306;BME280;50735;52.060;1.248;2022-11-27T08:54:25;101202.58;;;8.67;69.54
63306;BME280;50735;52.060;1.248;2022-11-27T08:56:52;101208.22;;;8.38;69.53
63306;BME280;50735;52.060;1.248;2022-11-27T08:59:18;101205.57;;;8.57;69.01
63306;BME280;50735;52.060;1.248;2022-11-27T09:01:45;101205.90;;;8.70;69.31
63306;BME280;50735;52.060;1.248;2022-11-27T09:04:11;101203.94;;;9.05;68.91
63306;BME280;50735;52.060;1.248;2022-11-27T09:06:39;101203.46;;;8.56;69.10
63306;BME280;50735;52.060;1.248;2022-11-27T09:09:06;101204.92;;;8.85;69.19
63306;BME280;50735;52.060;1.248;2022-11-27T09:11:34;101204.63;;;8.64;69.17
63306;BME280;50735;52.060;1.248;2022-11-27T09:14:03;101204.63;;;9.04;69.16
63306;BME280;50735;52.060;1.248;2022-11-27T09:16:31;101211.04;;;8.73;69.15
63306;BME280;50735;52.060;1.248;2022-11-27T09:18:58;101215.54;;;8.77;69.44
63306;BME280;50735;52.060;1.248;2022-11-27T09:21:27;101211.67;;;8.60;69.43
63306;BME280;50735;52.060;1.248;2022-11-27T09:23:55;101215.67;;;8.70;69.75
63306;BME280;50735;52.060;1.248;2022-11-27T09:26:22;101218.89;;;8.61;69.36
63306;BME280;50735;52.060;1.248;2022-11-27T09:28:49;101220.59;;;8.83;69.38
63306;BME280;50735;52.060;1.248;2022-11-27T09:31:17;101222.76;;;8.88;68.61
63306;BME280;50735;52.060;1.248;2022-11-27T09:33:44;101225.39;;;8.92;68.55
63306;BME280;50735;52.060;1.248;2022-11-27T09:36:13;101229.93;;;8.90;68.63
63306;BME280;50735;52.060;1.248;2022-11-27T09:38:40;101232.27;;;8.83;69.14
63306;BME280;50735;52.060;1.248;2022-11-27T09:41:31;101228.04;;;9.09;68.88
63306;BME280;50735;52.060;1.248;2022-11-27T09:44:02;101224.81;;;9.10;68.82
63306;BME280;50735;52.060;1.248;2022-11-27T09:46:33;101225.12;;;8.68;69.07
63306;BME280;50735;52.060;1.248;2022-11-27T09:49:03;101222.89;;;9.18;68.61
63306;BME280;50735;52.060;1.248;2022-11-27T09:51:36;101219.64;;;9.36;68.41
63306;BME280;50735;52.060;1.248;2022-11-27T09:54:07;101217.10;;;8.90;68.49
63306;BME280;50735;52.060;1.248;2022-11-27T09:56:40;101216.68;;;8.94;68.86
63306;BME280;50735;52.060;1.248;2022-11-27T09:59:15;101222.69;;;9.20;68.86
63306;BME280;50735;52.060;1.248;2022-11-27T10:01:42;101227.35;;;9.03;68.62
63306;BME280;50735;52.060;1.248;2022-11-27T10:04:11;101227.33;;;8.94;69.02
63306;BME280;50735;52.060;1.248;2022-11-27T10:06:47;101233.63;;;9.05;69.46
63306;BME280;50735;52.060;1.248;2022-11-27T10:09:25;101231.32;;;9.04;69.63
63306;BME280;50735;52.060;1.248;2022-11-27T10:12:05;101224.29;;;8.78;69.82
63306;BME280;50735;52.060;1.248;2022-11-27T10:14:52;101215.89;;;8.89;69.58
63306;BME280;50735;52.060;1.248;2022-11-27T10:17:24;101203.68;;;9.11;69.05
63306;BME280;50735;52.060;1.248;2022-11-27T10:20:12;101199.80;;;9.32;68.54
63306;BME280;50735;52.060;1.248;2022-11-27T10:22:48;101196.91;;;9.45;68.08
63306;BME280;50735;52.060;1.248;2022-11-27T10:25:19;101196.78;;;9.17;68.61
63306;BME280;50735;52.060;1.248;2022-11-27T10:27:59;101195.08;;;9.57;67.93
63306;BME280;50735;52.060;1.248;2022-11-27T10:30:30;101194.95;;;9.55;67.88
63306;BME280;50735;52.060;1.248;2022-11-27T10:32:59;101190.69;;;9.67;67.65
63306;BME280;50735;52.060;1.248;2022-11-27T10:35:30;101186.12;;;9.97;67.51
63306;BME280;50735;52.060;1.248;2022-11-27T10:38:00;101186.53;;;9.71;67.55
63306;BME280;50735;52.060;1.248;2022-11-27T10:40:35;101188.02;;;9.71;67.48
63306;BME280;50735;52.060;1.248;2022-11-27T10:43:09;101187.84;;;9.86;67.13
63306;BME280;50735;52.060;1.248;2022-11-27T10:45:43;101187.14;;;9.88;67.03
63306;BME280;50735;52.060;1.248;2022-11-27T10:48:12;101182.62;;;9.91;66.97
63306;BME280;50735;52.060;1.248;2022-11-27T10:50:39;101185.76;;;9.53;67.31
63306;BME280;50735;52.060;1.248;2022-11-27T10:53:08;101185.19;;;9.65;67.14
63306;BME280;50735;52.060;1.248;2022-11-27T10:55:51;101177.41;;;9.79;66.80
63306;BME280;50735;52.060;1.248;2022-11-27T10:58:25;101164.78;;;10.11;66.57
63306;BME280;50735;52.060;1.248;2022-11-27T11:01:05;101156.85;;;9.50;67.38
63306;BME280;50735;52.060;1.248;2022-11-27T11:03:32;101150.49;;;9.50;67.21
63306;BME280;50735;52.060;1.248;2022-11-27T11:06:01;101146.32;;;9.89;67.48
63306;BME280;50735;52.060;1.248;2022-11-27T11:08:28;101144.96;;;9.77;67.34
63306;BME280;50735;52.060;1.248;2022-11-27T11:10:58;101141.34;;;9.94;67.43
63306;BME280;50735;52.060;1.248;2022-11-27T11:13:27;101135.16;;;9.82;67.10
63306;BME280;50735;52.060;1.248;2022-11-27T11:15:57;101136.65;;;10.17;66.85
63306;BME280;50735;52.060;1.248;2022-11-27T11:18:27;101136.72;;;9.71;67.39
63306;BME280;50735;52.060;1.248;2022-11-27T11:20:56;101132.03;;;9.90;67.72
63306;BME280;50735;52.060;1.248;2022-11-27T11:23:28;101128.24;;;9.94;67.36
63306;BME280;50735;52.060;1.248;2022-11-27T11:25:58;101127.26;;;9.99;67.19
63306;BME280;50735;52.060;1.248;2022-11-27T11:28:28;101121.25;;;10.03;67.21
63306;BME280;50735;52.060;1.248;2022-11-27T11:31:00;101116.43;;;9.55;68.17
63306;BME280;50735;52.060;1.248;2022-11-27T11:33:28;101110.35;;;9.76;68.01
63306;BME280;50735;52.060;1.248;2022-11-27T11:36:05;101104.16;;;10.03;67.83
63306;BME280;50735;52.060;1.248;2022-11-27T11:38:33;101100.08;;;10.01;67.74
63306;BME280;50735;52.060;1.248;2022-11-27T11:41:03;101095.79;;;9.39;68.56
63306;BME280;50735;52.060;1.248;2022-11-27T11:43:32;101095.89;;;9.40;69.73
63306;BME280;50735;52.060;1.248;2022-11-27T11:46:05;101090.82;;;9.32;69.65
63306;BME280;50735;52.060;1.248;2022-11-27T11:48:34;101092.41;;;9.34;68.93
63306;BME280;50735;52.060;1.248;2022-11-27T11:51:07;101082.23;;;9.32;69.66
63306;BME280;50735;52.060;1.248;2022-11-27T11:53:38;101071.81;;;9.60;69.16
63306;BME280;50735;52.060;1.248;2022-11-27T11:56:19;101062.37;;;9.55;69.30
63306;BME280;50735;52.060;1.248;2022-11-27T11:58:52;101065.10;;;9.52;68.95
63306;BME280;50735;52.060;1.248;2022-11-27T12:01:34;101059.90;;;9.53;68.76
63306;BME280;50735;52.060;1.248;2022-11-27T12:04:16;101054.36;;;9.61;68.56
63306;BME280;50735;52.060;1.248;2022-11-27T12:06:53;101060.18;;;9.39;69.33
63306;BME280;50735;52.060;1.248;2022-11-27T12:09:33;101053.78;;;9.10;70.19
63306;BME280;50735;52.060;1.248;2022-11-27T12:12:16;101053.15;;;9.29;69.86
63306;BME280;50735;52.060;1.248;2022-11-27T12:14:49;101046.68;;;9.46;70.02
63306;BME280;50735;52.060;1.248;2022-11-27T12:17:31;101037.66;;;9.61;69.99
63306;BME280;50735;52.060;1.248;2022-11-27T12:20:12;101035.68;;;9.53;69.99
63306;BME280;50735;52.060;1.248;2022-11-27T12:23:00;101034.18;;;9.61;69.11
63306;BME280;50735;52.060;1.248;2022-11-27T12:25:34;101038.15;;;9.17;70.31
63306;BME280;50735;52.060;1.248;2022-11-27T12:28:23;101032.39;;;9.23;70.41
63306;BME280;50735;52.060;1.248;2022-11-27T12:31:02;101018.06;;;9.65;69.75
63306;BME280;50735;52.060;1.248;2022-11-27T12:33:42;101010.02;;;9.32;70.18
63306;BME280;50735;52.060;1.248;2022-11-27T12:36:18;101001.28;;;9.35;70.28
63306;BME280;50735;52.060;1.248;2022-11-27T12:39:08;100997.57;;;9.53;69.69
63306;BME280;50735;52.060;1.248;2022-11-27T12:41:46;100999.24;;;9.28;70.58
63306;BME280;50735;52.060;1.248;2022-11-27T12:44:21;100999.48;;;9.63;70.67
63306;BME280;50735;52.060;1.248;2022-11-27T12:46:55;100998.74;;;9.59;69.75
63306;BME280;50735;52.060;1.248;2022-11-27T12:49:27;101004.70;;;10.12;68.91
63306;BME280;50735;52.060;1.248;2022-11-27T12:52:01;101000.56;;;9.80;69.50
63306;BME280;50735;52.060;1.248;2022-11-27T12:54:38;100988.70;;;9.90;69.34
63306;BME280;50735;52.060;1.248;2022-11-27T12:57:14;100981.28;;;9.96;68.66
63306;BME280;50735;52.060;1.248;2022-11-27T12:59:46;100973.45;;;10.12;68.28
63306;BME280;50735;52.060;1.248;2022-11-27T13:02:25;100968.72;;;10.18;68.38
63306;BME280;50735;52.060;1.248;2022-11-27T13:04:56;100962.24;;;10.13;68.42
63306;BME280;50735;52.060;1.248;2022-11-27T13:07:28;100956.30;;;10.24;67.92
63306;BME280;50735;52.060;1.248;2022-11-27T13:10:02;100947.95;;;10.25;67.90
63306;BME280;50735;52.060;1.248;2022-11-27T13:12:33;100948.05;;;10.07;68.31
63306;BME280;50735;52.060;1.248;2022-11-27T13:15:05;100950.54;;;9.69;68.76